FALA

Lanseria Airport

Johannesburg, South Africa
METAR FALA 162000Z 06005KT CAVOK 21/14 Q1023
Observed Flight Rules
Dec-16 @ 20:00 UTC (5 hours ago) Visual Flight Rules
Wind Visibility Clouds
60° at 5 knots 10,000+ meters
  • Clear skies
Temperatures Readings
Current 21°C / 70°F
Dewpoint 14°C / 57°F
Humidity 64%
Altimeter 30.21" Hg
Pressure 1023 hPa
Elevation 1377
METAR FALA 162000Z 06005KT CAVOK 21/14 Q1023
Observed Flight Rules
Dec-16 @ 20:00 UTC
(5 hours ago)
VFR
Wind Visibility
60° at 5 knots 10,000+ meters
Clouds
  • Clear skies
Temperature Dewpoint
21°C / 70°F 14°C / 57°F
Humidity Altimeter Pressure
64% 30.21" Hg 1023 hPa